LAKE NATOMA (NIMBUS DAM) (NAT)

Elevation: 132' · AMERICAN R basin · Operator: US Bureau of Reclamation

Provisional data, subject to change.
Query executed Thursday at 3:24:43   clock

Select a sensor type for a plot of data.
Note: Reservoir Flows are daily averages.

Earlier

Date RES ELE    STORAGE    RES CHG    OUTFLOW    INFLOW    SPILL    DIS PWR   
 FEET   AF   AF   CFS   CFS   CFS   CFS  
06/29/2016 123.09 7833 177 4037 4131 0 3975
06/30/2016 123.44 7998 165 4052 4139 0 3976
07/01/2016 123.13 7852 -146 4433 4364 0 4357
07/02/2016 123.21 7890 38 4541 4565 0 4465
07/03/2016 123.43 7993 103 4540 4597 0 4460
07/04/2016 123.95 8238 245 4537 4666 0 4454
07/05/2016 123.75 8144 -94 5027 4984 0 4944
07/06/2016 121.63 7186 -958 5170 4691 0 5087
07/07/2016 123.19 7880 694 5224 5578 0 5141
07/08/2016 123.48 8017 137 5155 5228 0 5072
07/09/2016 123.66 8101 84 5173 5219 0 5090
07/10/2016 123.78 8158 57 5172 5205 0 5095
07/11/2016 124.21 8366 208 5129 5238 0 5063
07/12/2016 124.07 8296 -70 5061 5030 0 4995
07/13/2016 124.57 8546 250 5071 5201 0 5005
07/14/2016 124.11 8316 -230 5092 4981 0 5024
07/15/2016 123.49 8021 -295 5084 4940 0 5009
07/16/2016 124.19 8356 335 5093 5266 0 5018
07/17/2016 124.58 8551 195 5094 5196 0 5017
07/18/2016 123.77 8153 -398 5091 4894 0 5009
07/19/2016 123.75 8144 -9 5101 5100 0 5019
07/20/2016 123.88 8205 61 5103 5138 0 5021
07/21/2016 123.81 8172 -33 5098 5086 289 4727
07/22/2016 123.92 8223 51 5129 5159 521 4526
07/23/2016 124.16 8341 118 5134 5198 526 4526
07/24/2016 124.60 8561 220 5135 5251 525 4528
07/25/2016 124.64 8581 20 5133 5148 532 4522
07/26/2016 124.64 8581 0 5138 5143 554 4537
07/27/2016 -- -- -- -- -- -- --
07/28/2016 -- -- -- -- -- -- --

Later | Latest

Warning! This data is preliminary and subject to revision.

Show NAT Map | Plot NAT Data | 1 Month NAT Data | Real-Time NAT Data | NAT Info